createdAt,value
2023-02-08T00:01:00.509Z,96683.78
2023-02-08T00:03:29.137Z,96674.34
2023-02-08T00:05:56.090Z,96686.91
2023-02-08T00:08:22.935Z,96698.31
2023-02-08T00:10:50.187Z,96687.41
2023-02-08T00:13:17.166Z,96692.41
2023-02-08T00:15:45.545Z,96693.72
2023-02-08T00:18:13.139Z,96685.16
2023-02-08T00:20:42.077Z,96680.25
2023-02-08T00:23:08.994Z,96706.84
2023-02-08T00:25:36.509Z,96714.41
2023-02-08T00:28:04.766Z,96707.22
2023-02-08T00:30:32.792Z,96705.06
2023-02-08T00:33:01.390Z,96703.59
2023-02-08T00:35:29.131Z,96707.44
2023-02-08T00:37:56.383Z,96727.00
2023-02-08T00:40:23.909Z,96721.19
2023-02-08T00:42:50.753Z,96705.94
2023-02-08T00:45:17.704Z,96729.41
2023-02-08T00:47:44.450Z,96724.34
2023-02-08T00:50:11.561Z,96732.41
2023-02-08T00:52:38.780Z,96694.03
2023-02-08T00:55:07.002Z,96720.38
2023-02-08T00:57:34.370Z,96739.19
2023-02-08T01:00:01.507Z,96719.81
2023-02-08T01:02:29.152Z,96728.81
2023-02-08T01:04:55.936Z,96733.66
2023-02-08T01:07:22.783Z,96732.13
2023-02-08T01:09:49.500Z,96744.06
2023-02-08T01:12:16.905Z,96730.88
2023-02-08T01:14:43.717Z,96735.91
2023-02-08T01:17:14.883Z,96729.97
2023-02-08T01:19:42.589Z,96730.22
2023-02-08T01:22:09.486Z,96744.84
2023-02-08T01:24:36.310Z,96731.19
2023-02-08T01:27:04.044Z,96739.44
2023-02-08T01:29:30.993Z,96733.19
2023-02-08T01:31:59.160Z,96727.63
2023-02-08T01:34:29.496Z,96729.06
2023-02-08T01:36:56.196Z,96735.09
2023-02-08T01:39:23.111Z,96727.53
2023-02-08T01:41:51.746Z,96726.81
2023-02-08T01:44:18.638Z,96732.97
2023-02-08T01:46:48.724Z,96733.31
2023-02-08T01:49:21.420Z,96737.06
2023-02-08T01:52:04.933Z,96736.16
2023-02-08T01:54:38.342Z,96743.81
2023-02-08T01:57:05.226Z,96742.84
2023-02-08T01:59:45.866Z,96748.31
2023-02-08T02:02:16.524Z,96749.66
2023-02-08T02:04:45.009Z,96746.19
2023-02-08T02:07:13.452Z,96742.47
2023-02-08T02:09:43.145Z,96745.50
2023-02-08T02:12:11.314Z,96736.91
2023-02-08T02:14:39.169Z,96753.00
2023-02-08T02:17:06.844Z,96753.31
2023-02-08T02:19:49.427Z,96754.72
2023-02-08T02:22:31.571Z,96760.41
2023-02-08T02:25:18.237Z,96761.19
2023-02-08T02:28:11.158Z,96755.16
2023-02-08T02:30:56.564Z,96774.56
2023-02-08T02:33:38.321Z,96780.22
2023-02-08T02:36:22.648Z,96762.13
2023-02-08T02:39:05.709Z,96788.66
2023-02-08T02:42:18.120Z,96767.66
2023-02-08T02:45:14.116Z,96788.03
2023-02-08T02:47:56.262Z,96785.00
2023-02-08T02:50:32.051Z,96787.03
2023-02-08T02:53:14.477Z,96768.72
2023-02-08T02:55:47.032Z,96783.16
2023-02-08T02:58:16.866Z,96786.44
2023-02-08T03:00:43.775Z,96783.94
2023-02-08T03:03:21.486Z,96793.13
2023-02-08T03:05:49.895Z,96779.03
2023-02-08T03:08:24.606Z,96774.41
2023-02-08T03:11:19.990Z,96790.47
2023-02-08T03:14:24.511Z,96797.50
2023-02-08T03:17:18.632Z,96778.25
2023-02-08T03:20:09.677Z,96787.22
2023-02-08T03:22:42.263Z,96791.53
2023-02-08T03:25:19.836Z,96778.91
2023-02-08T03:28:12.706Z,96781.19
2023-02-08T03:30:53.262Z,96774.97
2023-02-08T03:33:48.631Z,96783.75
2023-02-08T03:36:33.121Z,96790.34
2023-02-08T03:39:03.121Z,96788.59
2023-02-08T03:41:36.544Z,96780.19
2023-02-08T03:44:12.206Z,96789.81
2023-02-08T03:46:49.762Z,96793.56
2023-02-08T03:49:24.318Z,96785.34
2023-02-08T03:51:52.855Z,96791.66
2023-02-08T03:54:22.763Z,96804.84
2023-02-08T03:57:04.448Z,96800.09
2023-02-08T03:59:37.366Z,96809.25
2023-02-08T04:02:07.899Z,96802.13
2023-02-08T04:04:39.369Z,96801.81
2023-02-08T04:07:06.876Z,96814.34
2023-02-08T04:09:33.757Z,96815.31
2023-02-08T04:12:00.669Z,96822.16
2023-02-08T04:14:27.449Z,96828.63
2023-02-08T04:16:55.535Z,96821.34
2023-02-08T04:19:22.360Z,96795.25
2023-02-08T04:21:49.227Z,96813.06
2023-02-08T04:24:17.005Z,96811.34
2023-02-08T04:26:43.844Z,96828.63
2023-02-08T04:29:10.596Z,96815.09
2023-02-08T04:31:37.611Z,96824.47
2023-02-08T04:34:04.731Z,96810.50
2023-02-08T04:36:31.795Z,96821.94
2023-02-08T04:38:58.465Z,96803.50
2023-02-08T04:41:25.279Z,96823.63
2023-02-08T04:43:51.979Z,96820.47
2023-02-08T04:46:19.121Z,96818.09
2023-02-08T04:48:46.097Z,96823.25
2023-02-08T04:51:12.965Z,96839.34
2023-02-08T04:53:39.657Z,96831.66
2023-02-08T04:56:06.831Z,96849.25
2023-02-08T04:58:33.563Z,96841.06
2023-02-08T05:01:00.374Z,96858.91
2023-02-08T05:03:27.112Z,96853.63
2023-02-08T05:06:00.324Z,96869.63
2023-02-08T05:08:28.486Z,96879.44
2023-02-08T05:10:55.219Z,96870.50
2023-02-08T05:13:22.057Z,96849.63
2023-02-08T05:15:48.824Z,96878.09
2023-02-08T05:18:15.711Z,96880.22
2023-02-08T05:20:42.794Z,96872.00
2023-02-08T05:23:09.670Z,96888.94
2023-02-08T05:25:38.304Z,96863.28
2023-02-08T05:28:05.285Z,96884.44
2023-02-08T05:30:32.239Z,96881.53
2023-02-08T05:32:58.911Z,96886.25
2023-02-08T05:35:25.805Z,96887.31
2023-02-08T05:37:52.590Z,96895.75
2023-02-08T05:40:19.582Z,96898.44
2023-02-08T05:42:48.106Z,96896.66
2023-02-08T05:45:16.077Z,96909.59
2023-02-08T05:47:42.899Z,96891.91
2023-02-08T05:50:10.545Z,96905.84
2023-02-08T05:52:38.230Z,96886.88
2023-02-08T05:55:06.038Z,96895.78
2023-02-08T05:57:35.491Z,96897.53
2023-02-08T06:00:04.301Z,96911.56
2023-02-08T06:02:32.464Z,96901.88
2023-02-08T06:04:59.521Z,96895.53
2023-02-08T06:07:26.381Z,96892.31
2023-02-08T06:09:54.281Z,96898.00
2023-02-08T06:12:21.169Z,96898.56
2023-02-08T06:14:47.970Z,96898.22
2023-02-08T06:17:15.937Z,96882.41
2023-02-08T06:19:42.802Z,96896.91
2023-02-08T06:22:10.636Z,96919.59
2023-02-08T06:24:37.489Z,96920.25
2023-02-08T06:27:04.428Z,96914.22
2023-02-08T06:29:31.320Z,96905.25
2023-02-08T06:31:58.218Z,96920.59
2023-02-08T06:34:25.353Z,96916.69
2023-02-08T06:36:52.024Z,96928.41
2023-02-08T06:39:18.857Z,96934.09
2023-02-08T06:41:45.623Z,96923.31
2023-02-08T06:44:12.729Z,96931.63
2023-02-08T06:46:39.547Z,96919.84
2023-02-08T06:49:06.644Z,96899.13
2023-02-08T06:51:33.486Z,96905.34
2023-02-08T06:54:00.159Z,96934.88
2023-02-08T06:56:27.091Z,96933.72
2023-02-08T06:58:53.906Z,96926.81
2023-02-08T07:01:20.777Z,96934.34
2023-02-08T07:03:48.577Z,96935.38
2023-02-08T07:06:17.264Z,96929.00
2023-02-08T07:08:44.757Z,96932.44
2023-02-08T07:11:14.133Z,96940.97
2023-02-08T07:13:41.389Z,96948.63
2023-02-08T07:16:10.177Z,96956.16
2023-02-08T07:18:37.563Z,96965.53
2023-02-08T07:21:04.857Z,96970.47
2023-02-08T07:23:31.926Z,96972.38
2023-02-08T07:26:03.160Z,96972.38
2023-02-08T07:28:30.321Z,96941.31
2023-02-08T07:30:57.919Z,96959.94
2023-02-08T07:33:26.179Z,96963.09
2023-02-08T07:35:52.918Z,96974.19
2023-02-08T07:38:20.810Z,96966.28
2023-02-08T07:40:48.004Z,96961.63
2023-02-08T07:43:14.981Z,96964.94
2023-02-08T07:45:51.616Z,96964.22
2023-02-08T07:48:18.650Z,96946.56
2023-02-08T07:50:46.609Z,96965.88
2023-02-08T07:53:14.331Z,96953.09
2023-02-08T07:55:41.228Z,96966.09
2023-02-08T07:58:07.900Z,96948.09
2023-02-08T08:00:34.716Z,96943.22
2023-02-08T08:03:01.511Z,96952.75
2023-02-08T08:05:28.326Z,96940.78
2023-02-08T08:07:55.139Z,96927.41
2023-02-08T08:10:21.971Z,96950.00
2023-02-08T08:12:48.706Z,96947.16
2023-02-08T08:15:15.541Z,96934.28
2023-02-08T08:17:42.308Z,96934.06
2023-02-08T08:20:11.154Z,96923.13
2023-02-08T08:22:37.999Z,96919.59
2023-02-08T08:25:05.208Z,96941.66
2023-02-08T08:27:32.094Z,96955.91
2023-02-08T08:29:59.979Z,96937.59
2023-02-08T08:32:28.137Z,96973.38
2023-02-08T08:34:57.878Z,96934.81
2023-02-08T08:37:24.828Z,96952.31
2023-02-08T08:39:51.614Z,96955.44
2023-02-08T08:42:21.194Z,96937.75
2023-02-08T08:44:48.078Z,96947.81
2023-02-08T08:47:15.285Z,96945.44
2023-02-08T08:49:43.850Z,96941.53
2023-02-08T08:52:11.885Z,96954.84
2023-02-08T08:54:38.836Z,96957.66
2023-02-08T08:57:05.810Z,96964.25
2023-02-08T08:59:33.236Z,96969.25
2023-02-08T09:02:01.294Z,96971.00
2023-02-08T09:04:28.456Z,96950.88
2023-02-08T09:06:55.495Z,96956.56
2023-02-08T09:09:38.367Z,96975.81
2023-02-08T09:12:05.726Z,96974.91
2023-02-08T09:14:53.267Z,96984.16
2023-02-08T09:17:32.878Z,96970.88
2023-02-08T09:20:18.556Z,96958.38
2023-02-08T09:22:53.799Z,96961.50
2023-02-08T09:25:21.112Z,96979.44
2023-02-08T09:27:56.221Z,96910.06
2023-02-08T09:30:25.458Z,96988.44
2023-02-08T09:32:52.379Z,96963.56
2023-02-08T09:35:26.378Z,96962.28
2023-02-08T09:37:58.275Z,96969.13
2023-02-08T09:40:52.664Z,96936.53
2023-02-08T09:43:49.478Z,96980.03
2023-02-08T09:46:22.825Z,96965.41
2023-02-08T09:48:52.403Z,96962.03
2023-02-08T09:51:39.740Z,96933.91
2023-02-08T09:54:32.855Z,96961.16
2023-02-08T09:57:07.135Z,96952.22
2023-02-08T09:59:35.836Z,96951.91
2023-02-08T10:02:18.657Z,96950.97
2023-02-08T10:05:14.049Z,96971.31
2023-02-08T10:07:42.795Z,96961.59
2023-02-08T10:10:38.863Z,96943.13
2023-02-08T10:13:19.394Z,96951.69
2023-02-08T10:16:17.865Z,96941.81
2023-02-08T10:19:12.023Z,96932.00
2023-02-08T10:22:14.153Z,96948.72
2023-02-08T10:25:04.724Z,96949.03
2023-02-08T10:27:50.245Z,96939.53
2023-02-08T10:30:17.203Z,96942.72
2023-02-08T10:32:55.631Z,96942.09
2023-02-08T10:35:42.981Z,96931.81
2023-02-08T10:38:45.415Z,96949.59
2023-02-08T10:41:20.529Z,96925.47
2023-02-08T10:44:38.646Z,96926.63
2023-02-08T10:47:33.667Z,96949.72
2023-02-08T10:50:09.217Z,96938.97
2023-02-08T10:52:41.456Z,96933.91
2023-02-08T10:55:18.661Z,96951.16
2023-02-08T10:57:51.291Z,96943.72
2023-02-08T11:00:22.641Z,96948.41
2023-02-08T11:02:54.769Z,96967.00
2023-02-08T11:05:35.499Z,96974.44
2023-02-08T11:08:11.767Z,96969.63
2023-02-08T11:10:45.299Z,96956.84
2023-02-08T11:13:24.705Z,96962.03
2023-02-08T11:16:00.777Z,96958.59
2023-02-08T11:18:39.815Z,96976.38
2023-02-08T11:21:23.921Z,96953.72
2023-02-08T11:23:55.101Z,96967.56
2023-02-08T11:26:25.143Z,96979.19
2023-02-08T11:29:27.618Z,96976.50
2023-02-08T11:32:02.445Z,96978.44
2023-02-08T11:34:37.729Z,96964.06
2023-02-08T11:37:28.080Z,96958.78
2023-02-08T11:40:03.132Z,96950.69
2023-02-08T11:42:40.126Z,96962.81
2023-02-08T11:45:13.262Z,96949.41
2023-02-08T11:47:40.191Z,96967.22
2023-02-08T11:50:08.919Z,96966.22
2023-02-08T11:52:43.371Z,96966.56
2023-02-08T11:55:33.916Z,96975.34
2023-02-08T11:58:12.850Z,96985.03
2023-02-08T12:00:41.508Z,96974.69
2023-02-08T12:03:18.302Z,96978.88
2023-02-08T12:05:45.409Z,96986.50
2023-02-08T12:08:59.430Z,96977.59
2023-02-08T12:11:42.248Z,96979.56
2023-02-08T12:14:50.868Z,96984.25
2023-02-08T12:17:36.319Z,96979.84
2023-02-08T12:20:32.749Z,96971.13
2023-02-08T12:23:22.839Z,96974.47
2023-02-08T12:26:20.162Z,96946.75
2023-02-08T12:28:53.128Z,96970.53
2023-02-08T12:31:46.961Z,96971.94
2023-02-08T12:34:41.022Z,96974.50
2023-02-08T12:38:04.598Z,96974.78
2023-02-08T12:40:57.625Z,96915.19
2023-02-08T12:43:39.656Z,96968.50
2023-02-08T12:46:19.224Z,96970.72
2023-02-08T12:48:58.044Z,96938.19
2023-02-08T12:51:41.243Z,96937.28
2023-02-08T12:54:37.428Z,96967.50
2023-02-08T12:57:06.657Z,96963.34
2023-02-08T12:59:39.684Z,96979.72
2023-02-08T13:02:19.801Z,96969.53
2023-02-08T13:04:51.752Z,96990.41
2023-02-08T13:07:24.820Z,96960.06
2023-02-08T13:10:14.670Z,96991.03
2023-02-08T13:12:53.449Z,96954.09
2023-02-08T13:15:31.101Z,96998.03
2023-02-08T13:18:24.428Z,96996.09
2023-02-08T13:21:01.713Z,96967.91
2023-02-08T13:23:33.374Z,97004.69
2023-02-08T13:26:17.664Z,97011.97
2023-02-08T13:28:52.461Z,96990.88
2023-02-08T13:31:42.021Z,97003.22
2023-02-08T13:34:28.670Z,96996.09
2023-02-08T13:37:24.047Z,97004.84
2023-02-08T13:40:20.454Z,96999.66
2023-02-08T13:42:56.710Z,97002.25
2023-02-08T13:45:31.976Z,97019.09
2023-02-08T13:48:02.435Z,97016.97
2023-02-08T13:50:35.433Z,97018.72
2023-02-08T13:53:03.622Z,97013.19
2023-02-08T13:55:33.815Z,97030.66
2023-02-08T13:58:02.860Z,97039.50
2023-02-08T14:00:33.162Z,97033.13
2023-02-08T14:03:02.378Z,97026.22
2023-02-08T14:05:51.551Z,97039.41
2023-02-08T14:08:22.277Z,97029.34
2023-02-08T14:11:10.125Z,97028.69
2023-02-08T14:13:49.032Z,97035.06
2023-02-08T14:16:36.118Z,97038.72
2023-02-08T14:19:06.329Z,97034.72
2023-02-08T14:21:47.782Z,97031.69
2023-02-08T14:24:24.478Z,97023.38
2023-02-08T14:27:04.923Z,97048.19
2023-02-08T14:29:33.043Z,97038.50
2023-02-08T14:32:00.605Z,97042.50
2023-02-08T14:34:38.126Z,97031.03
2023-02-08T14:37:10.876Z,97041.25
2023-02-08T14:39:37.995Z,97035.63
2023-02-08T14:42:08.790Z,97041.72
2023-02-08T14:44:38.686Z,97049.63
2023-02-08T14:47:08.425Z,97042.97
2023-02-08T14:49:42.157Z,97021.47
2023-02-08T14:52:27.382Z,97040.78
2023-02-08T14:55:00.012Z,97025.84
2023-02-08T14:57:31.642Z,97053.44
2023-02-08T15:00:01.733Z,97040.31
2023-02-08T15:02:32.653Z,97059.84
2023-02-08T15:05:00.835Z,97058.53
2023-02-08T15:07:41.824Z,97049.81
2023-02-08T15:10:17.113Z,97055.13
2023-02-08T15:12:47.312Z,97065.00
2023-02-08T15:15:32.516Z,97063.00
2023-02-08T15:18:01.689Z,97058.31
2023-02-08T15:20:31.525Z,97066.66
2023-02-08T15:23:26.945Z,97065.28
2023-02-08T15:25:56.394Z,97079.44
2023-02-08T15:28:25.609Z,97072.31
2023-02-08T15:31:06.474Z,97071.06
2023-02-08T15:33:34.214Z,97072.06
2023-02-08T15:36:06.516Z,97068.06
2023-02-08T15:38:38.658Z,97077.91
2023-02-08T15:41:23.620Z,97076.91
2023-02-08T15:43:50.738Z,97074.59
2023-02-08T15:46:22.622Z,97077.81
2023-02-08T15:48:50.631Z,97055.97
2023-02-08T15:51:20.263Z,97076.03
2023-02-08T15:53:50.446Z,97065.81
2023-02-08T15:56:34.278Z,97069.56
2023-02-08T15:59:06.742Z,97066.97
2023-02-08T16:01:34.000Z,97067.97
2023-02-08T16:04:12.310Z,97076.34
2023-02-08T16:06:45.414Z,97080.81
2023-02-08T16:09:25.300Z,97076.84
2023-02-08T16:11:54.011Z,97071.84
2023-02-08T16:14:28.739Z,97076.34
2023-02-08T16:16:58.586Z,97092.97
2023-02-08T16:19:29.689Z,97092.59
2023-02-08T16:22:16.644Z,97080.59
2023-02-08T16:24:43.565Z,97095.63
2023-02-08T16:27:25.599Z,97102.91
2023-02-08T16:29:53.071Z,97105.97
2023-02-08T16:32:35.925Z,97104.06
2023-02-08T16:35:14.699Z,97108.84
2023-02-08T16:37:42.257Z,97099.06
2023-02-08T16:40:40.330Z,97101.19
2023-02-08T16:43:31.809Z,97099.19
2023-02-08T16:46:10.748Z,97101.22
2023-02-08T16:48:49.185Z,97108.44
2023-02-08T16:51:23.911Z,97113.09
2023-02-08T16:54:02.622Z,97097.66
2023-02-08T16:56:30.697Z,97109.69
2023-02-08T16:58:57.476Z,97111.25
2023-02-08T17:01:24.648Z,97119.56
2023-02-08T17:03:53.081Z,97112.13
2023-02-08T17:06:49.955Z,97110.97
2023-02-08T17:09:16.767Z,97121.94
2023-02-08T17:11:43.516Z,97125.22
2023-02-08T17:14:10.410Z,97121.50
2023-02-08T17:16:39.996Z,97116.69
2023-02-08T17:19:07.344Z,97105.13
2023-02-08T17:21:34.090Z,97122.84
2023-02-08T17:24:01.876Z,97119.50
2023-02-08T17:26:37.099Z,97114.78
2023-02-08T17:29:04.463Z,97118.13
2023-02-08T17:31:33.282Z,97117.84
2023-02-08T17:34:07.181Z,97117.19
2023-02-08T17:36:36.815Z,97119.84
2023-02-08T17:39:05.575Z,97111.84
2023-02-08T17:41:33.523Z,97114.78
2023-02-08T17:44:00.320Z,97123.38
2023-02-08T17:46:32.538Z,97116.50
2023-02-08T17:49:01.649Z,97117.81
2023-02-08T17:51:28.474Z,97128.47
2023-02-08T17:53:55.355Z,97126.84
2023-02-08T17:56:24.349Z,97115.84
2023-02-08T17:58:53.922Z,97128.19
2023-02-08T18:01:24.927Z,97123.06
2023-02-08T18:03:52.872Z,97126.19
2023-02-08T18:06:20.928Z,97127.66
2023-02-08T18:08:47.759Z,97133.56
2023-02-08T18:11:19.671Z,97127.13
2023-02-08T18:13:51.626Z,97126.41
2023-02-08T18:16:24.717Z,97125.00
2023-02-08T18:18:52.505Z,97116.06
2023-02-08T18:21:21.233Z,97127.72
2023-02-08T18:23:49.634Z,97121.91
2023-02-08T18:26:19.033Z,97127.97
2023-02-08T18:28:46.563Z,97124.06
2023-02-08T18:31:16.420Z,97127.13
2023-02-08T18:33:43.976Z,97122.03
2023-02-08T18:36:11.681Z,97125.13
2023-02-08T18:38:40.497Z,97118.66
2023-02-08T18:41:09.497Z,97122.66
2023-02-08T18:43:37.400Z,97118.19
2023-02-08T18:46:06.665Z,97116.56
2023-02-08T18:48:33.657Z,97119.31
2023-02-08T18:51:03.156Z,97123.16
2023-02-08T18:53:33.519Z,97095.16
2023-02-08T18:56:02.204Z,97121.22
2023-02-08T18:58:29.797Z,97110.94
2023-02-08T19:01:05.209Z,97116.06
2023-02-08T19:03:32.208Z,97118.53
2023-02-08T19:06:10.348Z,97094.84
2023-02-08T19:08:40.353Z,97137.13
2023-02-08T19:11:34.975Z,97135.91
2023-02-08T19:14:04.584Z,97143.47
2023-02-08T19:16:32.953Z,97151.44
2023-02-08T19:19:01.278Z,97141.44
2023-02-08T19:21:30.053Z,97140.03
2023-02-08T19:24:03.492Z,97145.38
2023-02-08T19:26:33.861Z,97151.41
2023-02-08T19:29:03.427Z,97144.22
2023-02-08T19:31:30.851Z,97151.06
2023-02-08T19:34:00.998Z,97147.28
2023-02-08T19:36:37.231Z,97145.75
2023-02-08T19:39:06.592Z,97132.09
2023-02-08T19:41:39.485Z,97141.34
2023-02-08T19:44:08.955Z,97149.75
2023-02-08T19:46:38.877Z,97148.16
2023-02-08T19:49:07.460Z,97153.13
2023-02-08T19:51:37.035Z,97152.53
2023-02-08T19:54:07.159Z,97138.53
2023-02-08T19:56:34.829Z,97149.00
2023-02-08T19:59:04.127Z,97153.00
2023-02-08T20:01:34.490Z,97150.81
2023-02-08T20:04:02.862Z,97156.06
2023-02-08T20:06:33.798Z,97137.03
2023-02-08T20:09:00.768Z,97149.75
2023-02-08T20:11:35.894Z,97155.06
2023-02-08T20:14:03.363Z,97153.84
2023-02-08T20:16:31.868Z,97148.44
2023-02-08T20:18:59.597Z,97145.94
2023-02-08T20:21:27.085Z,97130.44
2023-02-08T20:23:55.369Z,97150.63
2023-02-08T20:26:27.626Z,97140.56
2023-02-08T20:28:57.339Z,97135.56
2023-02-08T20:31:33.092Z,97149.34
2023-02-08T20:34:03.396Z,97143.22
2023-02-08T20:36:40.560Z,97145.28
2023-02-08T20:39:11.072Z,97131.22
2023-02-08T20:41:38.608Z,97143.38
2023-02-08T20:44:05.700Z,97132.81
2023-02-08T20:46:34.785Z,97154.50
2023-02-08T20:49:05.073Z,97133.53
2023-02-08T20:51:32.150Z,97139.34
2023-02-08T20:54:00.730Z,97150.41
2023-02-08T20:56:34.779Z,97146.31
2023-02-08T20:59:07.376Z,97135.03
2023-02-08T21:01:35.724Z,97150.56
2023-02-08T21:04:03.168Z,97129.56
2023-02-08T21:06:36.087Z,97149.34
2023-02-08T21:09:06.711Z,97145.31
2023-02-08T21:11:34.435Z,97151.56
2023-02-08T21:14:02.077Z,97135.59
2023-02-08T21:16:30.845Z,97144.16
2023-02-08T21:19:00.593Z,97146.97
2023-02-08T21:21:28.343Z,97147.56
2023-02-08T21:23:56.876Z,97145.84
2023-02-08T21:26:25.485Z,97155.44
2023-02-08T21:28:54.329Z,97130.75
2023-02-08T21:31:22.569Z,97148.91
2023-02-08T21:33:50.171Z,97145.13
2023-02-08T21:36:20.637Z,97152.47
2023-02-08T21:38:47.585Z,97150.91
2023-02-08T21:41:20.817Z,97159.47
2023-02-08T21:43:48.974Z,97157.47
2023-02-08T21:46:16.299Z,97160.59
2023-02-08T21:49:02.241Z,97167.94
2023-02-08T21:51:47.953Z,97161.03
2023-02-08T21:54:41.498Z,97159.53
2023-02-08T21:57:14.368Z,97156.00
2023-02-08T21:59:41.328Z,97165.22
2023-02-08T22:02:12.837Z,97171.69
2023-02-08T22:04:58.188Z,97168.19
2023-02-08T22:07:26.498Z,97172.81
2023-02-08T22:09:55.435Z,97168.75
2023-02-08T22:12:23.181Z,97165.75
2023-02-08T22:14:50.632Z,97184.75
2023-02-08T22:17:19.465Z,97185.72
2023-02-08T22:19:47.287Z,97173.75
2023-02-08T22:22:19.885Z,97173.06
2023-02-08T22:24:46.874Z,97169.84
2023-02-08T22:27:13.684Z,97162.50
2023-02-08T22:29:40.578Z,97176.63
2023-02-08T22:32:09.987Z,97166.72
2023-02-08T22:34:38.187Z,97180.16
2023-02-08T22:37:04.974Z,97178.81
2023-02-08T22:39:33.025Z,97189.38
2023-02-08T22:41:59.822Z,97188.28
2023-02-08T22:44:26.673Z,97185.59
2023-02-08T22:46:53.425Z,97177.84
2023-02-08T22:49:20.298Z,97185.28
2023-02-08T22:51:47.034Z,97182.88
2023-02-08T22:54:13.938Z,97185.97
2023-02-08T22:56:40.737Z,97180.78
2023-02-08T22:59:07.544Z,97180.69
2023-02-08T23:01:34.364Z,97170.38
2023-02-08T23:04:01.222Z,97177.13
2023-02-08T23:06:28.465Z,97180.19
2023-02-08T23:08:55.472Z,97196.09
2023-02-08T23:11:22.255Z,97183.28
2023-02-08T23:13:48.984Z,97191.50
2023-02-08T23:16:18.571Z,97183.75
2023-02-08T23:18:45.595Z,97192.19
2023-02-08T23:21:16.546Z,97189.84
2023-02-08T23:23:45.090Z,97182.38
2023-02-08T23:26:17.697Z,97172.25
2023-02-08T23:28:45.005Z,97187.16
2023-02-08T23:31:13.873Z,97176.59
2023-02-08T23:33:41.562Z,97178.19
2023-02-08T23:36:14.432Z,97179.53
2023-02-08T23:38:42.293Z,97188.94
2023-02-08T23:41:14.703Z,97187.66
2023-02-08T23:43:41.858Z,97184.13
2023-02-08T23:46:22.705Z,97171.69
2023-02-08T23:48:49.906Z,97175.44
2023-02-08T23:51:19.212Z,97180.06
2023-02-08T23:53:46.499Z,97179.50
2023-02-08T23:56:21.949Z,97178.03
2023-02-08T23:58:51.536Z,97186.19
